sensor_id;sensor_type;location;lat;lon;timestamp;temperature;humidity
50013;DHT22;35901;48.694;9.476;2024-03-17T00:01:10;4.50;99.90
50013;DHT22;35901;48.694;9.476;2024-03-17T00:03:38;4.60;99.90
50013;DHT22;35901;48.694;9.476;2024-03-17T00:06:03;4.70;99.90
50013;DHT22;35901;48.694;9.476;2024-03-17T00:08:29;4.60;99.90
50013;DHT22;35901;48.694;9.476;2024-03-17T00:10:56;4.60;99.90
50013;DHT22;35901;48.694;9.476;2024-03-17T00:13:23;4.50;99.90
50013;DHT22;35901;48.694;9.476;2024-03-17T00:15:50;4.40;99.90
50013;DHT22;35901;48.694;9.476;2024-03-17T00:18:16;4.20;99.90
50013;DHT22;35901;48.694;9.476;2024-03-17T00:20:42;4.10;99.90
50013;DHT22;35901;48.694;9.476;2024-03-17T00:23:09;4.00;99.90
50013;DHT22;35901;48.694;9.476;2024-03-17T00:25:37;4.10;99.90
50013;DHT22;35901;48.694;9.476;2024-03-17T00:28:03;4.20;99.90
50013;DHT22;35901;48.694;9.476;2024-03-17T00:30:29;4.30;99.90
50013;DHT22;35901;48.694;9.476;2024-03-17T00:32:56;4.50;99.90
50013;DHT22;35901;48.694;9.476;2024-03-17T00:35:25;4.60;99.90
50013;DHT22;35901;48.694;9.476;2024-03-17T00:37:51;4.70;99.90
50013;DHT22;35901;48.694;9.476;2024-03-17T00:40:20;4.80;99.90
50013;DHT22;35901;48.694;9.476;2024-03-17T00:42:46;4.90;99.90
50013;DHT22;35901;48.694;9.476;2024-03-17T00:45:12;4.80;99.90
50013;DHT22;35901;48.694;9.476;2024-03-17T00:47:38;4.80;99.90
50013;DHT22;35901;48.694;9.476;2024-03-17T00:50:05;4.70;99.90
50013;DHT22;35901;48.694;9.476;2024-03-17T00:52:32;4.60;99.90
50013;DHT22;35901;48.694;9.476;2024-03-17T00:54:58;4.40;99.90
50013;DHT22;35901;48.694;9.476;2024-03-17T00:57:23;4.30;99.90
50013;DHT22;35901;48.694;9.476;2024-03-17T00:59:50;4.20;99.90
50013;DHT22;35901;48.694;9.476;2024-03-17T01:02:16;4.10;99.90
50013;DHT22;35901;48.694;9.476;2024-03-17T01:04:45;4.00;99.90
50013;DHT22;35901;48.694;9.476;2024-03-17T01:07:11;3.90;99.90
50013;DHT22;35901;48.694;9.476;2024-03-17T01:09:38;3.80;99.90
50013;DHT22;35901;48.694;9.476;2024-03-17T01:12:04;3.80;99.90
50013;DHT22;35901;48.694;9.476;2024-03-17T01:14:31;3.70;99.90
50013;DHT22;35901;48.694;9.476;2024-03-17T01:16:58;3.80;99.90
50013;DHT22;35901;48.694;9.476;2024-03-17T01:19:24;3.80;99.90
50013;DHT22;35901;48.694;9.476;2024-03-17T01:21:51;3.90;99.90
50013;DHT22;35901;48.694;9.476;2024-03-17T01:24:17;4.10;99.90
50013;DHT22;35901;48.694;9.476;2024-03-17T01:26:43;4.10;99.90
50013;DHT22;35901;48.694;9.476;2024-03-17T01:29:11;4.10;99.90
50013;DHT22;35901;48.694;9.476;2024-03-17T01:31:36;3.90;99.90
50013;DHT22;35901;48.694;9.476;2024-03-17T01:34:02;3.80;99.90
50013;DHT22;35901;48.694;9.476;2024-03-17T01:36:28;4.00;99.90
50013;DHT22;35901;48.694;9.476;2024-03-17T01:38:54;4.10;99.90
50013;DHT22;35901;48.694;9.476;2024-03-17T01:41:20;4.20;99.90
50013;DHT22;35901;48.694;9.476;2024-03-17T01:43:45;4.30;99.90
50013;DHT22;35901;48.694;9.476;2024-03-17T01:46:15;4.30;99.90
50013;DHT22;35901;48.694;9.476;2024-03-17T01:48:42;4.20;99.90
50013;DHT22;35901;48.694;9.476;2024-03-17T01:51:10;4.00;99.90
50013;DHT22;35901;48.694;9.476;2024-03-17T01:53:37;4.00;99.90
50013;DHT22;35901;48.694;9.476;2024-03-17T01:56:05;4.00;99.90
50013;DHT22;35901;48.694;9.476;2024-03-17T01:58:31;4.00;99.90
50013;DHT22;35901;48.694;9.476;2024-03-17T02:00:57;4.10;99.90
50013;DHT22;35901;48.694;9.476;2024-03-17T02:03:22;4.10;99.90
50013;DHT22;35901;48.694;9.476;2024-03-17T02:05:48;4.10;99.90
50013;DHT22;35901;48.694;9.476;2024-03-17T02:08:14;4.20;99.90
50013;DHT22;35901;48.694;9.476;2024-03-17T02:10:40;4.20;99.90
50013;DHT22;35901;48.694;9.476;2024-03-17T02:13:06;4.20;99.90
50013;DHT22;35901;48.694;9.476;2024-03-17T02:15:32;4.30;99.90
50013;DHT22;35901;48.694;9.476;2024-03-17T02:17:59;4.30;99.90
50013;DHT22;35901;48.694;9.476;2024-03-17T02:20:25;4.30;99.90
50013;DHT22;35901;48.694;9.476;2024-03-17T02:23:11;4.30;99.90
50013;DHT22;35901;48.694;9.476;2024-03-17T02:25:37;4.30;99.90
50013;DHT22;35901;48.694;9.476;2024-03-17T02:28:03;4.30;99.90
50013;DHT22;35901;48.694;9.476;2024-03-17T02:30:30;4.30;99.90
50013;DHT22;35901;48.694;9.476;2024-03-17T02:32:56;4.30;99.90
50013;DHT22;35901;48.694;9.476;2024-03-17T02:35:22;4.30;99.90
50013;DHT22;35901;48.694;9.476;2024-03-17T02:37:48;4.20;99.90
50013;DHT22;35901;48.694;9.476;2024-03-17T02:40:14;4.20;99.90
50013;DHT22;35901;48.694;9.476;2024-03-17T02:42:39;4.20;99.90
50013;DHT22;35901;48.694;9.476;2024-03-17T02:45:08;4.20;99.90
50013;DHT22;35901;48.694;9.476;2024-03-17T02:47:34;4.30;99.90
50013;DHT22;35901;48.694;9.476;2024-03-17T02:50:00;4.20;99.90
50013;DHT22;35901;48.694;9.476;2024-03-17T02:52:26;4.20;99.90
50013;DHT22;35901;48.694;9.476;2024-03-17T02:54:52;4.20;99.90
50013;DHT22;35901;48.694;9.476;2024-03-17T02:57:22;4.20;99.90
50013;DHT22;35901;48.694;9.476;2024-03-17T02:59:50;4.20;99.90
50013;DHT22;35901;48.694;9.476;2024-03-17T03:02:17;4.30;99.90
50013;DHT22;35901;48.694;9.476;2024-03-17T03:04:43;4.30;99.90
50013;DHT22;35901;48.694;9.476;2024-03-17T03:07:09;4.30;99.90
50013;DHT22;35901;48.694;9.476;2024-03-17T03:09:34;4.30;99.90
50013;DHT22;35901;48.694;9.476;2024-03-17T03:12:00;4.30;99.90
50013;DHT22;35901;48.694;9.476;2024-03-17T03:14:30;4.30;99.90
50013;DHT22;35901;48.694;9.476;2024-03-17T03:16:55;4.20;99.90
50013;DHT22;35901;48.694;9.476;2024-03-17T03:19:21;4.20;99.90
50013;DHT22;35901;48.694;9.476;2024-03-17T03:21:47;4.20;99.90
50013;DHT22;35901;48.694;9.476;2024-03-17T03:24:16;4.20;99.90
50013;DHT22;35901;48.694;9.476;2024-03-17T03:26:42;4.20;99.90
50013;DHT22;35901;48.694;9.476;2024-03-17T03:29:09;4.20;99.90
50013;DHT22;35901;48.694;9.476;2024-03-17T03:31:36;4.20;99.90
50013;DHT22;35901;48.694;9.476;2024-03-17T03:34:01;4.20;99.90
50013;DHT22;35901;48.694;9.476;2024-03-17T03:36:29;4.20;99.90
50013;DHT22;35901;48.694;9.476;2024-03-17T03:38:55;4.20;99.90
50013;DHT22;35901;48.694;9.476;2024-03-17T03:41:23;4.20;99.90
50013;DHT22;35901;48.694;9.476;2024-03-17T03:43:50;4.30;99.90
50013;DHT22;35901;48.694;9.476;2024-03-17T03:46:16;4.30;99.90
50013;DHT22;35901;48.694;9.476;2024-03-17T03:48:41;4.30;99.90
50013;DHT22;35901;48.694;9.476;2024-03-17T03:51:08;4.20;99.90
50013;DHT22;35901;48.694;9.476;2024-03-17T03:53:36;4.20;99.90
50013;DHT22;35901;48.694;9.476;2024-03-17T03:56:05;4.20;99.90
50013;DHT22;35901;48.694;9.476;2024-03-17T03:58:40;4.20;99.90
50013;DHT22;35901;48.694;9.476;2024-03-17T04:01:09;4.10;99.90
50013;DHT22;35901;48.694;9.476;2024-03-17T04:03:37;4.20;99.90
50013;DHT22;35901;48.694;9.476;2024-03-17T04:06:07;4.20;99.90
50013;DHT22;35901;48.694;9.476;2024-03-17T04:08:34;4.20;99.90
50013;DHT22;35901;48.694;9.476;2024-03-17T04:11:01;4.20;99.90
50013;DHT22;35901;48.694;9.476;2024-03-17T04:13:28;4.10;99.90
50013;DHT22;35901;48.694;9.476;2024-03-17T04:15:58;4.10;99.90
50013;DHT22;35901;48.694;9.476;2024-03-17T04:18:27;4.00;99.90
50013;DHT22;35901;48.694;9.476;2024-03-17T04:20:57;4.00;99.90
50013;DHT22;35901;48.694;9.476;2024-03-17T04:23:23;4.00;99.90
50013;DHT22;35901;48.694;9.476;2024-03-17T04:25:51;4.00;99.90
50013;DHT22;35901;48.694;9.476;2024-03-17T04:28:18;4.00;99.90
50013;DHT22;35901;48.694;9.476;2024-03-17T04:30:43;4.00;99.90
50013;DHT22;35901;48.694;9.476;2024-03-17T04:33:10;4.00;99.90
50013;DHT22;35901;48.694;9.476;2024-03-17T04:35:37;4.10;99.90
50013;DHT22;35901;48.694;9.476;2024-03-17T04:38:03;4.10;99.90
50013;DHT22;35901;48.694;9.476;2024-03-17T04:40:28;4.10;99.90
50013;DHT22;35901;48.694;9.476;2024-03-17T04:42:54;4.20;99.90
50013;DHT22;35901;48.694;9.476;2024-03-17T04:45:20;4.20;99.90
50013;DHT22;35901;48.694;9.476;2024-03-17T04:47:46;4.10;99.90
50013;DHT22;35901;48.694;9.476;2024-03-17T04:50:12;4.20;99.90
50013;DHT22;35901;48.694;9.476;2024-03-17T04:52:38;4.20;99.90
50013;DHT22;35901;48.694;9.476;2024-03-17T04:55:04;4.20;99.90
50013;DHT22;35901;48.694;9.476;2024-03-17T04:57:30;4.20;99.90
50013;DHT22;35901;48.694;9.476;2024-03-17T04:59:55;4.20;99.90
50013;DHT22;35901;48.694;9.476;2024-03-17T05:02:21;4.10;99.90
50013;DHT22;35901;48.694;9.476;2024-03-17T05:04:51;4.10;99.90
50013;DHT22;35901;48.694;9.476;2024-03-17T05:07:17;4.00;99.90
50013;DHT22;35901;48.694;9.476;2024-03-17T05:09:42;4.00;99.90
50013;DHT22;35901;48.694;9.476;2024-03-17T05:12:11;4.00;99.90
50013;DHT22;35901;48.694;9.476;2024-03-17T05:14:37;3.90;99.90
50013;DHT22;35901;48.694;9.476;2024-03-17T05:17:03;3.90;99.90
50013;DHT22;35901;48.694;9.476;2024-03-17T05:19:29;3.90;99.90
50013;DHT22;35901;48.694;9.476;2024-03-17T05:21:54;3.90;99.90
50013;DHT22;35901;48.694;9.476;2024-03-17T05:24:20;3.80;99.90
50013;DHT22;35901;48.694;9.476;2024-03-17T05:26:46;3.80;99.90
50013;DHT22;35901;48.694;9.476;2024-03-17T05:29:11;3.80;99.90
50013;DHT22;35901;48.694;9.476;2024-03-17T05:31:37;3.80;99.90
50013;DHT22;35901;48.694;9.476;2024-03-17T05:34:09;3.90;99.90
50013;DHT22;35901;48.694;9.476;2024-03-17T05:36:36;3.90;99.90
50013;DHT22;35901;48.694;9.476;2024-03-17T05:39:02;3.90;99.90
50013;DHT22;35901;48.694;9.476;2024-03-17T05:41:28;3.90;99.90
50013;DHT22;35901;48.694;9.476;2024-03-17T05:43:54;3.90;99.90
50013;DHT22;35901;48.694;9.476;2024-03-17T05:46:24;3.90;99.90
50013;DHT22;35901;48.694;9.476;2024-03-17T05:48:51;4.00;99.90
50013;DHT22;35901;48.694;9.476;2024-03-17T05:51:17;4.00;99.90
50013;DHT22;35901;48.694;9.476;2024-03-17T05:53:43;4.00;99.90
50013;DHT22;35901;48.694;9.476;2024-03-17T05:56:10;4.00;99.90
50013;DHT22;35901;48.694;9.476;2024-03-17T05:58:38;4.00;99.90
50013;DHT22;35901;48.694;9.476;2024-03-17T06:01:04;4.00;99.90
50013;DHT22;35901;48.694;9.476;2024-03-17T06:03:30;4.10;99.90
50013;DHT22;35901;48.694;9.476;2024-03-17T06:05:58;4.10;99.90
50013;DHT22;35901;48.694;9.476;2024-03-17T06:08:24;4.20;99.90
50013;DHT22;35901;48.694;9.476;2024-03-17T06:10:50;4.20;99.90
50013;DHT22;35901;48.694;9.476;2024-03-17T06:13:16;4.30;99.90
50013;DHT22;35901;48.694;9.476;2024-03-17T06:15:44;4.40;99.90
50013;DHT22;35901;48.694;9.476;2024-03-17T06:18:11;4.50;99.90
50013;DHT22;35901;48.694;9.476;2024-03-17T06:20:46;4.60;99.90
50013;DHT22;35901;48.694;9.476;2024-03-17T06:23:16;4.60;99.90
50013;DHT22;35901;48.694;9.476;2024-03-17T06:28:09;4.60;99.90
50013;DHT22;35901;48.694;9.476;2024-03-17T06:30:36;4.60;99.90
50013;DHT22;35901;48.694;9.476;2024-03-17T06:33:03;4.60;99.90
50013;DHT22;35901;48.694;9.476;2024-03-17T06:35:29;4.70;99.90
50013;DHT22;35901;48.694;9.476;2024-03-17T06:37:59;5.60;99.90
50013;DHT22;35901;48.694;9.476;2024-03-17T06:40:26;6.50;99.90
50013;DHT22;35901;48.694;9.476;2024-03-17T06:42:52;7.00;99.90
50013;DHT22;35901;48.694;9.476;2024-03-17T06:45:19;7.20;99.90
50013;DHT22;35901;48.694;9.476;2024-03-17T06:47:47;6.80;99.90
50013;DHT22;35901;48.694;9.476;2024-03-17T06:50:14;6.40;99.90
50013;DHT22;35901;48.694;9.476;2024-03-17T06:52:40;6.20;99.90
50013;DHT22;35901;48.694;9.476;2024-03-17T06:55:06;6.20;99.90
50013;DHT22;35901;48.694;9.476;2024-03-17T06:57:35;7.00;99.90
50013;DHT22;35901;48.694;9.476;2024-03-17T07:00:01;8.20;99.90
50013;DHT22;35901;48.694;9.476;2024-03-17T07:02:28;9.10;99.90
50013;DHT22;35901;48.694;9.476;2024-03-17T07:04:55;9.90;99.90
50013;DHT22;35901;48.694;9.476;2024-03-17T07:07:20;10.40;99.90
50013;DHT22;35901;48.694;9.476;2024-03-17T07:09:47;10.60;99.90
50013;DHT22;35901;48.694;9.476;2024-03-17T07:12:12;11.10;99.90
50013;DHT22;35901;48.694;9.476;2024-03-17T07:14:38;11.10;99.90
50013;DHT22;35901;48.694;9.476;2024-03-17T07:17:04;10.80;99.90
50013;DHT22;35901;48.694;9.476;2024-03-17T07:19:30;10.60;99.90
50013;DHT22;35901;48.694;9.476;2024-03-17T07:21:59;10.00;99.90
50013;DHT22;35901;48.694;9.476;2024-03-17T07:24:25;9.90;99.90
50013;DHT22;35901;48.694;9.476;2024-03-17T07:26:51;10.20;99.90
50013;DHT22;35901;48.694;9.476;2024-03-17T07:29:17;10.80;99.90
50013;DHT22;35901;48.694;9.476;2024-03-17T07:31:44;11.20;99.90
50013;DHT22;35901;48.694;9.476;2024-03-17T07:34:10;10.80;99.90
50013;DHT22;35901;48.694;9.476;2024-03-17T07:36:36;10.20;99.90
50013;DHT22;35901;48.694;9.476;2024-03-17T07:39:02;9.80;99.90
50013;DHT22;35901;48.694;9.476;2024-03-17T07:41:28;9.60;99.90
50013;DHT22;35901;48.694;9.476;2024-03-17T07:43:53;9.40;99.90
50013;DHT22;35901;48.694;9.476;2024-03-17T07:46:19;9.20;99.90
50013;DHT22;35901;48.694;9.476;2024-03-17T07:48:45;9.10;99.90
50013;DHT22;35901;48.694;9.476;2024-03-17T07:51:13;9.00;99.90
50013;DHT22;35901;48.694;9.476;2024-03-17T07:53:42;9.10;99.90
50013;DHT22;35901;48.694;9.476;2024-03-17T07:56:09;9.30;99.90
50013;DHT22;35901;48.694;9.476;2024-03-17T07:58:37;9.30;99.90
50013;DHT22;35901;48.694;9.476;2024-03-17T08:01:06;9.40;99.90
50013;DHT22;35901;48.694;9.476;2024-03-17T08:03:34;9.60;99.90
50013;DHT22;35901;48.694;9.476;2024-03-17T08:06:01;9.90;99.90
50013;DHT22;35901;48.694;9.476;2024-03-17T08:08:27;9.90;99.90
50013;DHT22;35901;48.694;9.476;2024-03-17T08:10:53;10.10;99.90
50013;DHT22;35901;48.694;9.476;2024-03-17T08:13:20;10.10;99.90
50013;DHT22;35901;48.694;9.476;2024-03-17T08:15:47;10.00;99.90
50013;DHT22;35901;48.694;9.476;2024-03-17T08:18:20;10.20;99.90
50013;DHT22;35901;48.694;9.476;2024-03-17T08:20:45;10.70;99.90
50013;DHT22;35901;48.694;9.476;2024-03-17T08:23:12;11.30;99.90
50013;DHT22;35901;48.694;9.476;2024-03-17T08:25:38;11.60;99.90
50013;DHT22;35901;48.694;9.476;2024-03-17T08:28:04;11.70;99.90
50013;DHT22;35901;48.694;9.476;2024-03-17T08:30:30;11.70;99.90
50013;DHT22;35901;48.694;9.476;2024-03-17T08:32:56;11.60;99.90
50013;DHT22;35901;48.694;9.476;2024-03-17T08:35:22;11.40;99.90
50013;DHT22;35901;48.694;9.476;2024-03-17T08:37:48;11.40;99.90
50013;DHT22;35901;48.694;9.476;2024-03-17T08:40:13;11.10;99.90
50013;DHT22;35901;48.694;9.476;2024-03-17T08:42:40;11.20;99.90
50013;DHT22;35901;48.694;9.476;2024-03-17T08:45:06;11.30;99.90
50013;DHT22;35901;48.694;9.476;2024-03-17T08:47:32;11.30;99.90
50013;DHT22;35901;48.694;9.476;2024-03-17T08:49:58;11.10;99.90
50013;DHT22;35901;48.694;9.476;2024-03-17T08:52:33;11.20;99.90
50013;DHT22;35901;48.694;9.476;2024-03-17T08:54:59;11.30;99.90
50013;DHT22;35901;48.694;9.476;2024-03-17T08:57:25;11.40;99.90
50013;DHT22;35901;48.694;9.476;2024-03-17T08:59:51;11.50;99.90
50013;DHT22;35901;48.694;9.476;2024-03-17T09:02:20;11.90;99.90
50013;DHT22;35901;48.694;9.476;2024-03-17T09:04:49;12.30;99.90
50013;DHT22;35901;48.694;9.476;2024-03-17T09:07:15;12.80;99.90
50013;DHT22;35901;48.694;9.476;2024-03-17T09:09:43;12.60;99.90
50013;DHT22;35901;48.694;9.476;2024-03-17T09:12:09;12.50;99.90
50013;DHT22;35901;48.694;9.476;2024-03-17T09:14:35;12.30;99.90
50013;DHT22;35901;48.694;9.476;2024-03-17T09:17:01;12.60;99.90
50013;DHT22;35901;48.694;9.476;2024-03-17T09:19:27;12.80;99.90
50013;DHT22;35901;48.694;9.476;2024-03-17T09:21:55;13.10;99.90
50013;DHT22;35901;48.694;9.476;2024-03-17T09:24:20;13.40;99.90
50013;DHT22;35901;48.694;9.476;2024-03-17T09:26:46;13.60;99.90
50013;DHT22;35901;48.694;9.476;2024-03-17T09:29:13;13.80;99.90
50013;DHT22;35901;48.694;9.476;2024-03-17T09:31:41;13.20;99.90
50013;DHT22;35901;48.694;9.476;2024-03-17T09:34:07;13.20;99.90
50013;DHT22;35901;48.694;9.476;2024-03-17T09:36:34;13.60;99.90
50013;DHT22;35901;48.694;9.476;2024-03-17T09:38:59;13.80;99.90
50013;DHT22;35901;48.694;9.476;2024-03-17T09:41:29;13.70;99.90
50013;DHT22;35901;48.694;9.476;2024-03-17T09:43:57;13.30;99.90
50013;DHT22;35901;48.694;9.476;2024-03-17T09:46:27;13.40;99.90
50013;DHT22;35901;48.694;9.476;2024-03-17T09:48:55;13.70;99.90
50013;DHT22;35901;48.694;9.476;2024-03-17T09:51:22;13.40;99.90
50013;DHT22;35901;48.694;9.476;2024-03-17T09:53:49;13.20;99.90
50013;DHT22;35901;48.694;9.476;2024-03-17T09:56:16;13.40;99.90
50013;DHT22;35901;48.694;9.476;2024-03-17T09:58:45;13.60;99.90
50013;DHT22;35901;48.694;9.476;2024-03-17T10:01:11;14.10;99.90
50013;DHT22;35901;48.694;9.476;2024-03-17T10:03:45;14.40;99.90
50013;DHT22;35901;48.694;9.476;2024-03-17T10:06:15;14.20;99.90
50013;DHT22;35901;48.694;9.476;2024-03-17T10:08:53;14.20;99.90
50013;DHT22;35901;48.694;9.476;2024-03-17T10:11:21;14.10;99.90
50013;DHT22;35901;48.694;9.476;2024-03-17T10:13:59;14.00;99.90
50013;DHT22;35901;48.694;9.476;2024-03-17T10:16:27;13.90;99.90
50013;DHT22;35901;48.694;9.476;2024-03-17T10:19:14;13.90;99.90
50013;DHT22;35901;48.694;9.476;2024-03-17T10:21:44;14.00;99.90
50013;DHT22;35901;48.694;9.476;2024-03-17T10:24:20;13.90;99.90
50013;DHT22;35901;48.694;9.476;2024-03-17T10:26:52;13.80;99.90
50013;DHT22;35901;48.694;9.476;2024-03-17T10:29:29;13.60;99.90
50013;DHT22;35901;48.694;9.476;2024-03-17T10:32:19;13.70;99.90
50013;DHT22;35901;48.694;9.476;2024-03-17T10:34:44;14.30;99.90
50013;DHT22;35901;48.694;9.476;2024-03-17T10:37:20;14.60;99.90
50013;DHT22;35901;48.694;9.476;2024-03-17T10:39:52;14.60;99.90
50013;DHT22;35901;48.694;9.476;2024-03-17T10:42:28;14.70;99.90
50013;DHT22;35901;48.694;9.476;2024-03-17T10:44:54;14.50;99.90
50013;DHT22;35901;48.694;9.476;2024-03-17T10:47:27;14.30;99.90
50013;DHT22;35901;48.694;9.476;2024-03-17T10:49:55;14.10;99.90
50013;DHT22;35901;48.694;9.476;2024-03-17T10:52:25;14.10;99.90
50013;DHT22;35901;48.694;9.476;2024-03-17T10:54:53;14.00;99.90
50013;DHT22;35901;48.694;9.476;2024-03-17T11:00:00;14.40;99.90
50013;DHT22;35901;48.694;9.476;2024-03-17T11:02:31;14.90;99.90
50013;DHT22;35901;48.694;9.476;2024-03-17T11:04:59;15.20;99.90
50013;DHT22;35901;48.694;9.476;2024-03-17T11:07:26;15.40;99.90
50013;DHT22;35901;48.694;9.476;2024-03-17T11:09:54;15.60;99.90
50013;DHT22;35901;48.694;9.476;2024-03-17T11:12:41;15.70;99.90
50013;DHT22;35901;48.694;9.476;2024-03-17T11:17:45;15.90;99.90
50013;DHT22;35901;48.694;9.476;2024-03-17T11:20:15;15.90;99.90
50013;DHT22;35901;48.694;9.476;2024-03-17T11:22:43;16.10;99.90
50013;DHT22;35901;48.694;9.476;2024-03-17T11:27:59;16.80;99.90
50013;DHT22;35901;48.694;9.476;2024-03-17T11:47:04;15.80;99.90
50013;DHT22;35901;48.694;9.476;2024-03-17T11:49:38;16.00;99.90
50013;DHT22;35901;48.694;9.476;2024-03-17T11:52:12;16.00;99.90
50013;DHT22;35901;48.694;9.476;2024-03-17T11:54:40;16.10;99.90
50013;DHT22;35901;48.694;9.476;2024-03-17T11:59:35;15.90;99.90
50013;DHT22;35901;48.694;9.476;2024-03-17T12:02:10;15.90;99.90
50013;DHT22;35901;48.694;9.476;2024-03-17T12:04:40;16.10;99.90
50013;DHT22;35901;48.694;9.476;2024-03-17T12:07:13;16.20;99.90
50013;DHT22;35901;48.694;9.476;2024-03-17T12:09:41;16.20;99.90
50013;DHT22;35901;48.694;9.476;2024-03-17T12:12:17;16.20;99.90
50013;DHT22;35901;48.694;9.476;2024-03-17T12:14:45;16.10;99.90
50013;DHT22;35901;48.694;9.476;2024-03-17T12:17:12;16.10;99.90
50013;DHT22;35901;48.694;9.476;2024-03-17T12:19:39;16.10;99.90
50013;DHT22;35901;48.694;9.476;2024-03-17T12:22:06;15.90;99.90
50013;DHT22;35901;48.694;9.476;2024-03-17T12:24:34;15.80;99.90
50013;DHT22;35901;48.694;9.476;2024-03-17T12:27:01;15.60;99.90
50013;DHT22;35901;48.694;9.476;2024-03-17T12:29:59;15.60;99.90
50013;DHT22;35901;48.694;9.476;2024-03-17T12:32:25;15.50;99.90
50013;DHT22;35901;48.694;9.476;2024-03-17T12:34:52;15.50;99.90
50013;DHT22;35901;48.694;9.476;2024-03-17T12:37:25;15.30;99.90
50013;DHT22;35901;48.694;9.476;2024-03-17T12:39:56;15.20;99.90
50013;DHT22;35901;48.694;9.476;2024-03-17T12:42:25;15.20;99.90
50013;DHT22;35901;48.694;9.476;2024-03-17T12:47:18;15.10;99.90
50013;DHT22;35901;48.694;9.476;2024-03-17T12:49:58;15.20;99.90
50013;DHT22;35901;48.694;9.476;2024-03-17T12:52:31;15.20;99.90
50013;DHT22;35901;48.694;9.476;2024-03-17T12:55:01;15.10;99.90
50013;DHT22;35901;48.694;9.476;2024-03-17T12:57:47;15.00;99.90
50013;DHT22;35901;48.694;9.476;2024-03-17T13:01:11;14.90;99.90
50013;DHT22;35901;48.694;9.476;2024-03-17T13:03:38;14.90;99.90
50013;DHT22;35901;48.694;9.476;2024-03-17T13:06:05;14.90;99.90
50013;DHT22;35901;48.694;9.476;2024-03-17T13:08:32;15.00;99.90
50013;DHT22;35901;48.694;9.476;2024-03-17T13:10:59;14.90;99.90
50013;DHT22;35901;48.694;9.476;2024-03-17T13:13:24;14.80;99.90
50013;DHT22;35901;48.694;9.476;2024-03-17T13:15:50;14.70;99.90
50013;DHT22;35901;48.694;9.476;2024-03-17T13:18:18;14.70;99.90
50013;DHT22;35901;48.694;9.476;2024-03-17T13:20:48;14.70;99.90
50013;DHT22;35901;48.694;9.476;2024-03-17T13:23:15;14.60;99.90
50013;DHT22;35901;48.694;9.476;2024-03-17T13:25:41;14.60;99.90
50013;DHT22;35901;48.694;9.476;2024-03-17T13:28:09;14.50;99.90
50013;DHT22;35901;48.694;9.476;2024-03-17T13:30:35;14.40;99.90
50013;DHT22;35901;48.694;9.476;2024-03-17T13:33:07;14.30;99.90
50013;DHT22;35901;48.694;9.476;2024-03-17T13:35:38;14.30;99.90
50013;DHT22;35901;48.694;9.476;2024-03-17T13:38:08;14.40;99.90
50013;DHT22;35901;48.694;9.476;2024-03-17T13:40:37;14.40;99.90
50013;DHT22;35901;48.694;9.476;2024-03-17T13:43:04;14.40;99.90
50013;DHT22;35901;48.694;9.476;2024-03-17T13:45:50;14.40;99.90
50013;DHT22;35901;48.694;9.476;2024-03-17T13:48:16;14.40;99.90
50013;DHT22;35901;48.694;9.476;2024-03-17T13:50:42;14.50;99.90
50013;DHT22;35901;48.694;9.476;2024-03-17T13:53:11;14.60;99.90
50013;DHT22;35901;48.694;9.476;2024-03-17T13:55:37;14.60;99.90
50013;DHT22;35901;48.694;9.476;2024-03-17T13:58:03;14.60;99.90
50013;DHT22;35901;48.694;9.476;2024-03-17T14:00:30;14.60;99.90
50013;DHT22;35901;48.694;9.476;2024-03-17T14:02:57;14.60;99.90
50013;DHT22;35901;48.694;9.476;2024-03-17T14:05:25;14.60;99.90
50013;DHT22;35901;48.694;9.476;2024-03-17T14:07:52;14.50;99.90
50013;DHT22;35901;48.694;9.476;2024-03-17T14:10:20;14.50;99.90
50013;DHT22;35901;48.694;9.476;2024-03-17T14:12:47;14.60;99.90
50013;DHT22;35901;48.694;9.476;2024-03-17T14:15:14;14.60;99.90
50013;DHT22;35901;48.694;9.476;2024-03-17T14:17:41;14.60;99.90
50013;DHT22;35901;48.694;9.476;2024-03-17T14:20:08;14.50;99.90
50013;DHT22;35901;48.694;9.476;2024-03-17T14:22:37;14.50;99.90
50013;DHT22;35901;48.694;9.476;2024-03-17T14:25:10;14.40;99.90
50013;DHT22;35901;48.694;9.476;2024-03-17T14:27:38;14.30;99.90
50013;DHT22;35901;48.694;9.476;2024-03-17T14:30:04;14.20;99.90
50013;DHT22;35901;48.694;9.476;2024-03-17T14:32:31;14.20;99.90
50013;DHT22;35901;48.694;9.476;2024-03-17T14:34:57;14.20;99.90
50013;DHT22;35901;48.694;9.476;2024-03-17T14:37:23;14.30;99.90
50013;DHT22;35901;48.694;9.476;2024-03-17T14:39:50;14.40;99.90
50013;DHT22;35901;48.694;9.476;2024-03-17T14:42:16;14.50;99.90
50013;DHT22;35901;48.694;9.476;2024-03-17T14:44:42;14.60;99.90
50013;DHT22;35901;48.694;9.476;2024-03-17T14:47:08;14.70;99.90
50013;DHT22;35901;48.694;9.476;2024-03-17T14:49:36;14.80;99.90
50013;DHT22;35901;48.694;9.476;2024-03-17T14:52:02;15.00;99.90
50013;DHT22;35901;48.694;9.476;2024-03-17T14:54:28;15.00;99.90
50013;DHT22;35901;48.694;9.476;2024-03-17T14:56:53;15.00;99.90
50013;DHT22;35901;48.694;9.476;2024-03-17T14:59:20;15.00;99.90
50013;DHT22;35901;48.694;9.476;2024-03-17T15:01:46;15.10;99.90
50013;DHT22;35901;48.694;9.476;2024-03-17T15:04:13;15.20;99.90
50013;DHT22;35901;48.694;9.476;2024-03-17T15:06:40;15.30;99.90
50013;DHT22;35901;48.694;9.476;2024-03-17T15:09:24;15.40;99.90
50013;DHT22;35901;48.694;9.476;2024-03-17T15:11:50;15.50;99.90
50013;DHT22;35901;48.694;9.476;2024-03-17T15:14:15;15.60;99.90
50013;DHT22;35901;48.694;9.476;2024-03-17T15:16:41;15.50;99.90
50013;DHT22;35901;48.694;9.476;2024-03-17T15:19:07;15.30;99.90
50013;DHT22;35901;48.694;9.476;2024-03-17T15:21:33;15.10;99.90
50013;DHT22;35901;48.694;9.476;2024-03-17T15:24:02;15.00;99.90
50013;DHT22;35901;48.694;9.476;2024-03-17T15:26:28;15.10;99.90
50013;DHT22;35901;48.694;9.476;2024-03-17T15:28:54;14.90;99.90
50013;DHT22;35901;48.694;9.476;2024-03-17T15:31:21;14.90;99.90
50013;DHT22;35901;48.694;9.476;2024-03-17T15:33:50;14.70;99.90
50013;DHT22;35901;48.694;9.476;2024-03-17T15:36:16;14.40;99.90
50013;DHT22;35901;48.694;9.476;2024-03-17T15:38:42;14.20;99.90
50013;DHT22;35901;48.694;9.476;2024-03-17T15:41:09;14.10;99.90
50013;DHT22;35901;48.694;9.476;2024-03-17T15:43:38;14.00;99.90
50013;DHT22;35901;48.694;9.476;2024-03-17T15:46:16;14.00;99.90
50013;DHT22;35901;48.694;9.476;2024-03-17T15:48:44;14.00;99.90
50013;DHT22;35901;48.694;9.476;2024-03-17T15:51:09;13.80;99.90
50013;DHT22;35901;48.694;9.476;2024-03-17T15:53:35;13.80;99.90
50013;DHT22;35901;48.694;9.476;2024-03-17T15:56:02;13.60;99.90
50013;DHT22;35901;48.694;9.476;2024-03-17T15:58:29;13.60;99.90
50013;DHT22;35901;48.694;9.476;2024-03-17T16:00:55;13.50;99.90
50013;DHT22;35901;48.694;9.476;2024-03-17T16:03:28;13.30;99.90
50013;DHT22;35901;48.694;9.476;2024-03-17T16:05:54;13.20;99.90
50013;DHT22;35901;48.694;9.476;2024-03-17T16:08:23;13.10;99.90
50013;DHT22;35901;48.694;9.476;2024-03-17T16:10:52;13.00;99.90
50013;DHT22;35901;48.694;9.476;2024-03-17T16:13:32;12.90;99.90